sensor_id;sensor_type;location;lat;lon;timestamp;temperature;humidity
9450;DHT22;4763;48.370;10.874;2023-06-14T00:02:13;13.80;99.90
9450;DHT22;4763;48.370;10.874;2023-06-14T00:04:41;13.70;99.90
9450;DHT22;4763;48.370;10.874;2023-06-14T00:07:10;13.70;99.90
9450;DHT22;4763;48.370;10.874;2023-06-14T00:09:39;13.60;99.90
9450;DHT22;4763;48.370;10.874;2023-06-14T00:12:06;13.60;99.90
9450;DHT22;4763;48.370;10.874;2023-06-14T00:14:34;13.60;99.90
9450;DHT22;4763;48.370;10.874;2023-06-14T00:17:00;13.60;99.90
9450;DHT22;4763;48.370;10.874;2023-06-14T00:19:28;13.60;99.90
9450;DHT22;4763;48.370;10.874;2023-06-14T00:21:56;13.50;99.90
9450;DHT22;4763;48.370;10.874;2023-06-14T00:24:24;13.50;99.90
9450;DHT22;4763;48.370;10.874;2023-06-14T00:26:51;13.50;99.90
9450;DHT22;4763;48.370;10.874;2023-06-14T00:29:17;13.50;99.90
9450;DHT22;4763;48.370;10.874;2023-06-14T00:31:44;13.50;99.90
9450;DHT22;4763;48.370;10.874;2023-06-14T00:34:11;13.50;99.90
9450;DHT22;4763;48.370;10.874;2023-06-14T00:36:37;13.50;99.90
9450;DHT22;4763;48.370;10.874;2023-06-14T00:39:04;13.40;99.90
9450;DHT22;4763;48.370;10.874;2023-06-14T00:41:32;13.30;99.90
9450;DHT22;4763;48.370;10.874;2023-06-14T00:43:59;13.30;99.90
9450;DHT22;4763;48.370;10.874;2023-06-14T00:46:25;13.30;99.90
9450;DHT22;4763;48.370;10.874;2023-06-14T00:48:52;13.20;99.90
9450;DHT22;4763;48.370;10.874;2023-06-14T00:51:20;13.10;99.90
9450;DHT22;4763;48.370;10.874;2023-06-14T00:53:47;13.00;99.90
9450;DHT22;4763;48.370;10.874;2023-06-14T00:56:13;13.00;99.90
9450;DHT22;4763;48.370;10.874;2023-06-14T00:58:43;12.90;99.90
9450;DHT22;4763;48.370;10.874;2023-06-14T01:01:10;12.90;99.90
9450;DHT22;4763;48.370;10.874;2023-06-14T01:03:37;12.80;99.90
9450;DHT22;4763;48.370;10.874;2023-06-14T01:06:14;12.70;99.90
9450;DHT22;4763;48.370;10.874;2023-06-14T01:08:49;12.70;99.90
9450;DHT22;4763;48.370;10.874;2023-06-14T01:11:22;12.70;99.90
9450;DHT22;4763;48.370;10.874;2023-06-14T01:13:53;12.70;99.90
9450;DHT22;4763;48.370;10.874;2023-06-14T01:16:22;12.60;99.90
9450;DHT22;4763;48.370;10.874;2023-06-14T01:18:52;12.60;99.90
9450;DHT22;4763;48.370;10.874;2023-06-14T01:21:22;12.60;99.90
9450;DHT22;4763;48.370;10.874;2023-06-14T01:23:51;12.60;99.90
9450;DHT22;4763;48.370;10.874;2023-06-14T01:26:19;12.50;99.90
9450;DHT22;4763;48.370;10.874;2023-06-14T01:28:47;12.50;99.90
9450;DHT22;4763;48.370;10.874;2023-06-14T01:31:18;12.50;99.90
9450;DHT22;4763;48.370;10.874;2023-06-14T01:33:48;12.50;99.90
9450;DHT22;4763;48.370;10.874;2023-06-14T01:36:15;12.40;99.90
9450;DHT22;4763;48.370;10.874;2023-06-14T01:38:44;12.30;99.90
9450;DHT22;4763;48.370;10.874;2023-06-14T01:41:15;12.40;99.90
9450;DHT22;4763;48.370;10.874;2023-06-14T01:43:42;12.30;99.90
9450;DHT22;4763;48.370;10.874;2023-06-14T01:46:10;12.30;99.90
9450;DHT22;4763;48.370;10.874;2023-06-14T01:48:37;12.30;99.90
9450;DHT22;4763;48.370;10.874;2023-06-14T01:51:04;12.20;99.90
9450;DHT22;4763;48.370;10.874;2023-06-14T01:53:31;12.20;99.90
9450;DHT22;4763;48.370;10.874;2023-06-14T01:55:57;12.20;99.90
9450;DHT22;4763;48.370;10.874;2023-06-14T01:58:25;12.20;99.90
9450;DHT22;4763;48.370;10.874;2023-06-14T02:00:52;12.10;99.90
9450;DHT22;4763;48.370;10.874;2023-06-14T02:03:20;12.10;99.90
9450;DHT22;4763;48.370;10.874;2023-06-14T02:05:48;12.10;99.90
9450;DHT22;4763;48.370;10.874;2023-06-14T02:08:15;12.00;99.90
9450;DHT22;4763;48.370;10.874;2023-06-14T02:10:42;12.00;99.90
9450;DHT22;4763;48.370;10.874;2023-06-14T02:13:09;12.00;99.90
9450;DHT22;4763;48.370;10.874;2023-06-14T02:15:37;12.00;99.90
9450;DHT22;4763;48.370;10.874;2023-06-14T02:18:04;12.00;99.90
9450;DHT22;4763;48.370;10.874;2023-06-14T02:20:31;11.90;99.90
9450;DHT22;4763;48.370;10.874;2023-06-14T02:22:58;11.80;99.90
9450;DHT22;4763;48.370;10.874;2023-06-14T02:25:25;11.80;99.90
9450;DHT22;4763;48.370;10.874;2023-06-14T02:27:53;11.80;99.90
9450;DHT22;4763;48.370;10.874;2023-06-14T02:30:20;11.80;99.90
9450;DHT22;4763;48.370;10.874;2023-06-14T02:32:48;11.70;99.90
9450;DHT22;4763;48.370;10.874;2023-06-14T02:35:16;11.70;99.90
9450;DHT22;4763;48.370;10.874;2023-06-14T02:37:43;11.70;99.90
9450;DHT22;4763;48.370;10.874;2023-06-14T02:40:10;11.60;99.90
9450;DHT22;4763;48.370;10.874;2023-06-14T02:42:37;11.60;99.90
9450;DHT22;4763;48.370;10.874;2023-06-14T02:45:04;11.50;99.90
9450;DHT22;4763;48.370;10.874;2023-06-14T02:47:31;11.60;99.90
9450;DHT22;4763;48.370;10.874;2023-06-14T02:49:59;11.50;99.90
9450;DHT22;4763;48.370;10.874;2023-06-14T02:52:26;11.50;99.90
9450;DHT22;4763;48.370;10.874;2023-06-14T02:54:53;11.50;99.90
9450;DHT22;4763;48.370;10.874;2023-06-14T02:57:19;11.40;99.90
9450;DHT22;4763;48.370;10.874;2023-06-14T02:59:46;11.40;99.90
9450;DHT22;4763;48.370;10.874;2023-06-14T03:02:13;11.30;99.90
9450;DHT22;4763;48.370;10.874;2023-06-14T03:04:40;11.40;99.90
9450;DHT22;4763;48.370;10.874;2023-06-14T03:07:11;11.40;99.90
9450;DHT22;4763;48.370;10.874;2023-06-14T03:09:39;11.40;99.90
9450;DHT22;4763;48.370;10.874;2023-06-14T03:12:07;11.40;99.90
9450;DHT22;4763;48.370;10.874;2023-06-14T03:14:34;11.40;99.90
9450;DHT22;4763;48.370;10.874;2023-06-14T03:17:01;11.40;99.90
9450;DHT22;4763;48.370;10.874;2023-06-14T03:19:30;11.40;99.90
9450;DHT22;4763;48.370;10.874;2023-06-14T03:21:57;11.30;99.90
9450;DHT22;4763;48.370;10.874;2023-06-14T03:24:25;11.30;99.90
9450;DHT22;4763;48.370;10.874;2023-06-14T03:26:54;11.30;99.90
9450;DHT22;4763;48.370;10.874;2023-06-14T03:29:20;11.30;99.90
9450;DHT22;4763;48.370;10.874;2023-06-14T03:31:57;11.30;99.90
9450;DHT22;4763;48.370;10.874;2023-06-14T03:34:24;11.30;99.90
9450;DHT22;4763;48.370;10.874;2023-06-14T03:36:51;11.20;99.90
9450;DHT22;4763;48.370;10.874;2023-06-14T03:39:18;11.20;99.90
9450;DHT22;4763;48.370;10.874;2023-06-14T03:41:50;11.20;99.90
9450;DHT22;4763;48.370;10.874;2023-06-14T03:44:17;11.20;99.90
9450;DHT22;4763;48.370;10.874;2023-06-14T03:46:44;11.20;99.90
9450;DHT22;4763;48.370;10.874;2023-06-14T03:49:11;11.20;99.90
9450;DHT22;4763;48.370;10.874;2023-06-14T03:51:38;11.20;99.90
9450;DHT22;4763;48.370;10.874;2023-06-14T03:54:06;11.20;99.90
9450;DHT22;4763;48.370;10.874;2023-06-14T03:56:33;11.20;99.90
9450;DHT22;4763;48.370;10.874;2023-06-14T03:59:01;11.10;99.90
9450;DHT22;4763;48.370;10.874;2023-06-14T04:01:28;11.10;99.90
9450;DHT22;4763;48.370;10.874;2023-06-14T04:03:56;11.10;99.90
9450;DHT22;4763;48.370;10.874;2023-06-14T04:06:23;11.20;99.90
9450;DHT22;4763;48.370;10.874;2023-06-14T04:08:58;11.20;99.90
9450;DHT22;4763;48.370;10.874;2023-06-14T04:11:27;11.20;99.90
9450;DHT22;4763;48.370;10.874;2023-06-14T04:13:54;11.30;99.90
9450;DHT22;4763;48.370;10.874;2023-06-14T04:16:23;11.30;99.90
9450;DHT22;4763;48.370;10.874;2023-06-14T04:18:50;11.30;99.90
9450;DHT22;4763;48.370;10.874;2023-06-14T04:21:18;11.30;99.90
9450;DHT22;4763;48.370;10.874;2023-06-14T04:23:44;11.40;99.90
9450;DHT22;4763;48.370;10.874;2023-06-14T04:26:11;11.40;99.90
9450;DHT22;4763;48.370;10.874;2023-06-14T04:28:38;11.40;99.90
9450;DHT22;4763;48.370;10.874;2023-06-14T04:31:06;11.50;99.90
9450;DHT22;4763;48.370;10.874;2023-06-14T04:33:35;11.50;99.90
9450;DHT22;4763;48.370;10.874;2023-06-14T04:36:09;11.60;99.90
9450;DHT22;4763;48.370;10.874;2023-06-14T04:38:37;11.60;99.90
9450;DHT22;4763;48.370;10.874;2023-06-14T04:41:03;11.60;99.90
9450;DHT22;4763;48.370;10.874;2023-06-14T04:43:31;11.60;99.90
9450;DHT22;4763;48.370;10.874;2023-06-14T04:46:04;11.70;99.90
9450;DHT22;4763;48.370;10.874;2023-06-14T04:48:37;11.70;99.90
9450;DHT22;4763;48.370;10.874;2023-06-14T04:51:06;11.80;99.90
9450;DHT22;4763;48.370;10.874;2023-06-14T04:53:33;11.80;99.90
9450;DHT22;4763;48.370;10.874;2023-06-14T04:55:59;11.80;99.90
9450;DHT22;4763;48.370;10.874;2023-06-14T04:58:28;11.90;99.90
9450;DHT22;4763;48.370;10.874;2023-06-14T05:00:55;12.00;99.90
9450;DHT22;4763;48.370;10.874;2023-06-14T05:03:22;12.10;99.90
9450;DHT22;4763;48.370;10.874;2023-06-14T05:05:50;12.10;99.90
9450;DHT22;4763;48.370;10.874;2023-06-14T05:08:18;12.20;99.90
9450;DHT22;4763;48.370;10.874;2023-06-14T05:10:45;12.20;99.90
9450;DHT22;4763;48.370;10.874;2023-06-14T05:13:12;12.30;99.90
9450;DHT22;4763;48.370;10.874;2023-06-14T05:15:39;12.30;99.90
9450;DHT22;4763;48.370;10.874;2023-06-14T05:18:06;12.40;99.90
9450;DHT22;4763;48.370;10.874;2023-06-14T05:20:33;12.40;99.90
9450;DHT22;4763;48.370;10.874;2023-06-14T05:23:03;12.50;99.90
9450;DHT22;4763;48.370;10.874;2023-06-14T05:25:30;12.60;99.90
9450;DHT22;4763;48.370;10.874;2023-06-14T05:27:57;12.70;99.90
9450;DHT22;4763;48.370;10.874;2023-06-14T05:30:23;12.70;99.90
9450;DHT22;4763;48.370;10.874;2023-06-14T05:32:50;12.80;99.90
9450;DHT22;4763;48.370;10.874;2023-06-14T05:35:18;12.90;99.90
9450;DHT22;4763;48.370;10.874;2023-06-14T05:37:45;13.00;99.90
9450;DHT22;4763;48.370;10.874;2023-06-14T05:40:14;13.10;99.90
9450;DHT22;4763;48.370;10.874;2023-06-14T05:42:42;13.20;99.90
9450;DHT22;4763;48.370;10.874;2023-06-14T05:45:09;13.30;99.90
9450;DHT22;4763;48.370;10.874;2023-06-14T05:47:36;13.50;99.90
9450;DHT22;4763;48.370;10.874;2023-06-14T05:50:03;13.60;99.90
9450;DHT22;4763;48.370;10.874;2023-06-14T05:52:30;13.70;99.90
9450;DHT22;4763;48.370;10.874;2023-06-14T05:54:57;13.80;99.90
9450;DHT22;4763;48.370;10.874;2023-06-14T05:57:25;13.90;99.90
9450;DHT22;4763;48.370;10.874;2023-06-14T05:59:51;14.00;99.90
9450;DHT22;4763;48.370;10.874;2023-06-14T06:02:18;14.00;99.90
9450;DHT22;4763;48.370;10.874;2023-06-14T06:04:45;14.20;99.90
9450;DHT22;4763;48.370;10.874;2023-06-14T06:07:11;14.30;99.90
9450;DHT22;4763;48.370;10.874;2023-06-14T06:09:44;14.50;99.90
9450;DHT22;4763;48.370;10.874;2023-06-14T06:12:13;14.70;99.90
9450;DHT22;4763;48.370;10.874;2023-06-14T06:14:41;15.00;99.90
9450;DHT22;4763;48.370;10.874;2023-06-14T06:17:08;15.30;99.90
9450;DHT22;4763;48.370;10.874;2023-06-14T06:19:35;15.60;99.90
9450;DHT22;4763;48.370;10.874;2023-06-14T06:22:02;15.90;99.90
9450;DHT22;4763;48.370;10.874;2023-06-14T06:24:30;16.10;99.90
9450;DHT22;4763;48.370;10.874;2023-06-14T06:26:57;16.30;99.90
9450;DHT22;4763;48.370;10.874;2023-06-14T06:29:23;16.50;99.90
9450;DHT22;4763;48.370;10.874;2023-06-14T06:31:51;16.70;99.90
9450;DHT22;4763;48.370;10.874;2023-06-14T06:34:18;16.90;99.90
9450;DHT22;4763;48.370;10.874;2023-06-14T06:36:45;17.10;99.90
9450;DHT22;4763;48.370;10.874;2023-06-14T06:39:11;17.30;99.90
9450;DHT22;4763;48.370;10.874;2023-06-14T06:41:40;17.30;99.90
9450;DHT22;4763;48.370;10.874;2023-06-14T06:44:07;17.50;99.90
9450;DHT22;4763;48.370;10.874;2023-06-14T06:46:35;17.60;99.90
9450;DHT22;4763;48.370;10.874;2023-06-14T06:49:06;17.60;99.90
9450;DHT22;4763;48.370;10.874;2023-06-14T06:51:35;17.80;99.90
9450;DHT22;4763;48.370;10.874;2023-06-14T06:54:01;18.10;99.90
9450;DHT22;4763;48.370;10.874;2023-06-14T06:56:28;18.20;99.90
9450;DHT22;4763;48.370;10.874;2023-06-14T06:58:57;18.40;99.90
9450;DHT22;4763;48.370;10.874;2023-06-14T07:01:23;18.50;99.90
9450;DHT22;4763;48.370;10.874;2023-06-14T07:03:51;18.50;99.90
9450;DHT22;4763;48.370;10.874;2023-06-14T07:06:19;18.60;99.90
9450;DHT22;4763;48.370;10.874;2023-06-14T07:08:46;18.80;99.90
9450;DHT22;4763;48.370;10.874;2023-06-14T07:11:13;18.90;99.90
9450;DHT22;4763;48.370;10.874;2023-06-14T07:13:40;18.90;99.90
9450;DHT22;4763;48.370;10.874;2023-06-14T07:16:07;19.10;99.90
9450;DHT22;4763;48.370;10.874;2023-06-14T07:18:33;19.20;99.90
9450;DHT22;4763;48.370;10.874;2023-06-14T07:21:01;19.50;99.90
9450;DHT22;4763;48.370;10.874;2023-06-14T07:23:30;19.60;99.90
9450;DHT22;4763;48.370;10.874;2023-06-14T07:25:56;19.70;99.60
9450;DHT22;4763;48.370;10.874;2023-06-14T07:28:23;19.60;98.80
9450;DHT22;4763;48.370;10.874;2023-06-14T07:30:50;19.70;99.90
9450;DHT22;4763;48.370;10.874;2023-06-14T07:33:16;20.00;99.90
9450;DHT22;4763;48.370;10.874;2023-06-14T07:35:43;20.40;99.70
9450;DHT22;4763;48.370;10.874;2023-06-14T07:38:11;20.40;98.70
9450;DHT22;4763;48.370;10.874;2023-06-14T07:40:39;20.40;97.70
9450;DHT22;4763;48.370;10.874;2023-06-14T07:43:05;20.30;98.60
9450;DHT22;4763;48.370;10.874;2023-06-14T07:45:32;20.60;97.70
9450;DHT22;4763;48.370;10.874;2023-06-14T07:47:59;20.80;98.60
9450;DHT22;4763;48.370;10.874;2023-06-14T07:50:25;21.10;99.80
9450;DHT22;4763;48.370;10.874;2023-06-14T07:52:52;21.40;99.30
9450;DHT22;4763;48.370;10.874;2023-06-14T07:55:19;21.40;96.80
9450;DHT22;4763;48.370;10.874;2023-06-14T07:57:47;21.60;97.80
9450;DHT22;4763;48.370;10.874;2023-06-14T08:00:15;21.90;96.40
9450;DHT22;4763;48.370;10.874;2023-06-14T08:02:44;21.80;95.20
9450;DHT22;4763;48.370;10.874;2023-06-14T08:05:11;21.90;97.90
9450;DHT22;4763;48.370;10.874;2023-06-14T08:07:38;22.00;97.40
9450;DHT22;4763;48.370;10.874;2023-06-14T08:10:07;22.10;95.30
9450;DHT22;4763;48.370;10.874;2023-06-14T08:12:34;22.20;97.10
9450;DHT22;4763;48.370;10.874;2023-06-14T08:15:02;22.60;96.30
9450;DHT22;4763;48.370;10.874;2023-06-14T08:17:29;22.70;95.60
9450;DHT22;4763;48.370;10.874;2023-06-14T08:19:56;22.80;96.70
9450;DHT22;4763;48.370;10.874;2023-06-14T08:22:23;22.90;94.60
9450;DHT22;4763;48.370;10.874;2023-06-14T08:24:51;23.20;95.60
9450;DHT22;4763;48.370;10.874;2023-06-14T08:27:19;23.40;93.80
9450;DHT22;4763;48.370;10.874;2023-06-14T08:29:46;23.50;93.90
9450;DHT22;4763;48.370;10.874;2023-06-14T08:32:14;23.60;93.10
9450;DHT22;4763;48.370;10.874;2023-06-14T08:34:41;23.80;93.70
9450;DHT22;4763;48.370;10.874;2023-06-14T08:37:07;23.80;93.00
9450;DHT22;4763;48.370;10.874;2023-06-14T08:39:34;23.80;93.30
9450;DHT22;4763;48.370;10.874;2023-06-14T08:42:02;23.80;92.10
9450;DHT22;4763;48.370;10.874;2023-06-14T08:44:29;23.90;91.60
9450;DHT22;4763;48.370;10.874;2023-06-14T08:46:56;24.00;93.20
9450;DHT22;4763;48.370;10.874;2023-06-14T08:49:25;24.20;93.90
9450;DHT22;4763;48.370;10.874;2023-06-14T08:51:56;24.40;91.80
9450;DHT22;4763;48.370;10.874;2023-06-14T08:54:23;24.30;92.40
9450;DHT22;4763;48.370;10.874;2023-06-14T08:56:53;24.30;93.10
9450;DHT22;4763;48.370;10.874;2023-06-14T08:59:23;24.20;92.10
9450;DHT22;4763;48.370;10.874;2023-06-14T09:01:51;24.50;93.10
9450;DHT22;4763;48.370;10.874;2023-06-14T09:04:19;24.50;92.10
9450;DHT22;4763;48.370;10.874;2023-06-14T09:06:48;24.70;91.60
9450;DHT22;4763;48.370;10.874;2023-06-14T09:09:18;25.10;91.10
9450;DHT22;4763;48.370;10.874;2023-06-14T09:11:46;25.30;90.50
9450;DHT22;4763;48.370;10.874;2023-06-14T09:14:13;25.10;90.30
9450;DHT22;4763;48.370;10.874;2023-06-14T09:16:40;25.10;87.60
9450;DHT22;4763;48.370;10.874;2023-06-14T09:19:06;24.80;90.00
9450;DHT22;4763;48.370;10.874;2023-06-14T09:21:34;25.00;91.20
9450;DHT22;4763;48.370;10.874;2023-06-14T09:24:03;25.10;88.20
9450;DHT22;4763;48.370;10.874;2023-06-14T09:26:31;25.30;89.80
9450;DHT22;4763;48.370;10.874;2023-06-14T09:28:58;24.90;83.80
9450;DHT22;4763;48.370;10.874;2023-06-14T09:31:30;25.00;86.60
9450;DHT22;4763;48.370;10.874;2023-06-14T09:37:57;25.30;86.50
9450;DHT22;4763;48.370;10.874;2023-06-14T09:40:35;25.80;84.70
9450;DHT22;4763;48.370;10.874;2023-06-14T09:57:36;26.10;81.60
9450;DHT22;4763;48.370;10.874;2023-06-14T10:00:17;26.30;82.30
9450;DHT22;4763;48.370;10.874;2023-06-14T10:03:13;26.20;77.80
9450;DHT22;4763;48.370;10.874;2023-06-14T10:05:45;26.30;78.60
9450;DHT22;4763;48.370;10.874;2023-06-14T10:08:18;26.70;85.30
9450;DHT22;4763;48.370;10.874;2023-06-14T10:14:33;26.90;71.30
9450;DHT22;4763;48.370;10.874;2023-06-14T10:17:05;26.80;77.60
9450;DHT22;4763;48.370;10.874;2023-06-14T10:19:40;26.40;79.70
9450;DHT22;4763;48.370;10.874;2023-06-14T10:22:14;26.60;76.70
9450;DHT22;4763;48.370;10.874;2023-06-14T10:28:29;27.20;74.00
9450;DHT22;4763;48.370;10.874;2023-06-14T10:31:16;27.20;75.40
9450;DHT22;4763;48.370;10.874;2023-06-14T10:59:02;28.10;73.20
9450;DHT22;4763;48.370;10.874;2023-06-14T11:01:46;28.00;69.90
9450;DHT22;4763;48.370;10.874;2023-06-14T11:05:55;28.00;73.20
9450;DHT22;4763;48.370;10.874;2023-06-14T11:12:04;28.20;71.30
9450;DHT22;4763;48.370;10.874;2023-06-14T11:14:57;28.40;72.60
9450;DHT22;4763;48.370;10.874;2023-06-14T11:18:30;28.60;71.90
9450;DHT22;4763;48.370;10.874;2023-06-14T11:21:00;28.30;72.90
9450;DHT22;4763;48.370;10.874;2023-06-14T11:24:09;28.40;72.10
9450;DHT22;4763;48.370;10.874;2023-06-14T11:26:40;28.40;72.00
9450;DHT22;4763;48.370;10.874;2023-06-14T11:29:29;28.70;71.00
9450;DHT22;4763;48.370;10.874;2023-06-14T11:35:21;28.80;71.20
9450;DHT22;4763;48.370;10.874;2023-06-14T11:37:50;28.90;72.60
9450;DHT22;4763;48.370;10.874;2023-06-14T11:40:26;28.30;69.50
9450;DHT22;4763;48.370;10.874;2023-06-14T11:42:59;28.10;72.40
9450;DHT22;4763;48.370;10.874;2023-06-14T11:45:35;28.20;73.90
9450;DHT22;4763;48.370;10.874;2023-06-14T12:02:54;28.70;72.30
9450;DHT22;4763;48.370;10.874;2023-06-14T12:06:49;28.50;74.40
9450;DHT22;4763;48.370;10.874;2023-06-14T12:09:26;28.20;69.30
9450;DHT22;4763;48.370;10.874;2023-06-14T12:12:07;28.40;70.40
9450;DHT22;4763;48.370;10.874;2023-06-14T12:14:42;28.00;70.70
9450;DHT22;4763;48.370;10.874;2023-06-14T12:21:42;28.60;71.60
9450;DHT22;4763;48.370;10.874;2023-06-14T12:24:49;28.10;67.50
9450;DHT22;4763;48.370;10.874;2023-06-14T12:41:32;28.40;72.40
9450;DHT22;4763;48.370;10.874;2023-06-14T12:44:20;28.90;74.40
9450;DHT22;4763;48.370;10.874;2023-06-14T12:51:08;29.00;69.00
9450;DHT22;4763;48.370;10.874;2023-06-14T12:53:40;29.40;72.20
9450;DHT22;4763;48.370;10.874;2023-06-14T13:10:15;29.20;70.90
9450;DHT22;4763;48.370;10.874;2023-06-14T13:14:07;29.30;63.60
9450;DHT22;4763;48.370;10.874;2023-06-14T13:37:22;26.80;73.50
9450;DHT22;4763;48.370;10.874;2023-06-14T13:42:31;26.30;73.80
9450;DHT22;4763;48.370;10.874;2023-06-14T13:45:22;26.40;74.80
9450;DHT22;4763;48.370;10.874;2023-06-14T13:49:13;27.20;77.10
9450;DHT22;4763;48.370;10.874;2023-06-14T13:51:00;27.80;76.10
9450;DHT22;4763;48.370;10.874;2023-06-14T13:53:53;28.60;70.90
9450;DHT22;4763;48.370;10.874;2023-06-14T13:56:21;28.70;70.10
9450;DHT22;4763;48.370;10.874;2023-06-14T13:58:50;28.40;70.90
9450;DHT22;4763;48.370;10.874;2023-06-14T14:01:55;28.70;70.60
9450;DHT22;4763;48.370;10.874;2023-06-14T14:04:26;28.70;68.10
9450;DHT22;4763;48.370;10.874;2023-06-14T14:10:16;28.10;69.60
9450;DHT22;4763;48.370;10.874;2023-06-14T14:12:46;27.40;69.10
9450;DHT22;4763;48.370;10.874;2023-06-14T14:15:16;27.00;68.10
9450;DHT22;4763;48.370;10.874;2023-06-14T14:17:44;26.60;69.30
9450;DHT22;4763;48.370;10.874;2023-06-14T14:20:11;26.40;72.00
9450;DHT22;4763;48.370;10.874;2023-06-14T14:26:48;26.00;72.90
9450;DHT22;4763;48.370;10.874;2023-06-14T14:29:26;25.90;72.20
9450;DHT22;4763;48.370;10.874;2023-06-14T14:31:59;26.00;75.30
9450;DHT22;4763;48.370;10.874;2023-06-14T14:34:33;25.90;75.60
9450;DHT22;4763;48.370;10.874;2023-06-14T14:37:00;25.80;72.90
9450;DHT22;4763;48.370;10.874;2023-06-14T14:39:30;25.60;72.00
9450;DHT22;4763;48.370;10.874;2023-06-14T14:41:59;25.60;74.90
9450;DHT22;4763;48.370;10.874;2023-06-14T14:44:34;25.60;74.90
9450;DHT22;4763;48.370;10.874;2023-06-14T14:47:06;25.60;76.60
9450;DHT22;4763;48.370;10.874;2023-06-14T14:49:34;25.50;77.70
9450;DHT22;4763;48.370;10.874;2023-06-14T14:52:01;25.50;76.60
9450;DHT22;4763;48.370;10.874;2023-06-14T14:54:30;25.50;74.60
9450;DHT22;4763;48.370;10.874;2023-06-14T14:57:15;25.40;74.70
9450;DHT22;4763;48.370;10.874;2023-06-14T14:59:48;25.40;76.80
9450;DHT22;4763;48.370;10.874;2023-06-14T15:02:19;25.30;76.10
9450;DHT22;4763;48.370;10.874;2023-06-14T15:04:57;25.50;80.30
9450;DHT22;4763;48.370;10.874;2023-06-14T15:07:31;25.50;75.80
9450;DHT22;4763;48.370;10.874;2023-06-14T15:10:17;26.30;75.60
9450;DHT22;4763;48.370;10.874;2023-06-14T15:13:21;27.40;72.80
9450;DHT22;4763;48.370;10.874;2023-06-14T15:15:49;27.50;71.70
9450;DHT22;4763;48.370;10.874;2023-06-14T15:18:17;27.10;71.80
9450;DHT22;4763;48.370;10.874;2023-06-14T15:20:53;27.30;74.90
9450;DHT22;4763;48.370;10.874;2023-06-14T15:26:59;27.80;71.70
9450;DHT22;4763;48.370;10.874;2023-06-14T15:29:28;28.40;71.50
9450;DHT22;4763;48.370;10.874;2023-06-14T15:32:08;28.50;68.40
9450;DHT22;4763;48.370;10.874;2023-06-14T15:34:45;28.30;68.40
9450;DHT22;4763;48.370;10.874;2023-06-14T15:37:46;28.00;69.90
9450;DHT22;4763;48.370;10.874;2023-06-14T15:40:31;28.70;70.90
9450;DHT22;4763;48.370;10.874;2023-06-14T15:43:33;29.30;68.20
9450;DHT22;4763;48.370;10.874;2023-06-14T15:46:06;29.50;66.90
9450;DHT22;4763;48.370;10.874;2023-06-14T15:59:28;29.10;66.70
9450;DHT22;4763;48.370;10.874;2023-06-14T16:02:29;28.30;67.40
9450;DHT22;4763;48.370;10.874;2023-06-14T16:05:05;27.90;69.30
9450;DHT22;4763;48.370;10.874;2023-06-14T16:13:53;26.40;70.10
9450;DHT22;4763;48.370;10.874;2023-06-14T16:16:21;26.10;72.20
9450;DHT22;4763;48.370;10.874;2023-06-14T16:18:52;25.90;72.70
9450;DHT22;4763;48.370;10.874;2023-06-14T16:21:19;25.90;72.30
9450;DHT22;4763;48.370;10.874;2023-06-14T16:23:46;25.70;73.50
9450;DHT22;4763;48.370;10.874;2023-06-14T16:26:13;25.70;72.40
9450;DHT22;4763;48.370;10.874;2023-06-14T16:28:40;25.40;73.50
9450;DHT22;4763;48.370;10.874;2023-06-14T16:31:08;25.30;74.90
9450;DHT22;4763;48.370;10.874;2023-06-14T16:33:35;25.30;75.70
9450;DHT22;4763;48.370;10.874;2023-06-14T16:36:07;25.40;74.80
9450;DHT22;4763;48.370;10.874;2023-06-14T16:39:03;25.40;75.50
9450;DHT22;4763;48.370;10.874;2023-06-14T16:41:32;25.50;72.90
9450;DHT22;4763;48.370;10.874;2023-06-14T16:44:00;25.40;75.20
9450;DHT22;4763;48.370;10.874;2023-06-14T16:46:29;25.60;75.30
9450;DHT22;4763;48.370;10.874;2023-06-14T16:49:03;25.50;75.20
9450;DHT22;4763;48.370;10.874;2023-06-14T16:51:32;25.50;75.70
9450;DHT22;4763;48.370;10.874;2023-06-14T16:54:01;25.50;78.60
9450;DHT22;4763;48.370;10.874;2023-06-14T16:56:28;25.40;75.00
9450;DHT22;4763;48.370;10.874;2023-06-14T16:58:59;25.10;76.20
9450;DHT22;4763;48.370;10.874;2023-06-14T17:01:26;24.90;75.50
9450;DHT22;4763;48.370;10.874;2023-06-14T17:03:54;24.90;76.80
9450;DHT22;4763;48.370;10.874;2023-06-14T17:06:23;24.80;79.90
9450;DHT22;4763;48.370;10.874;2023-06-14T17:09:15;24.70;77.30
9450;DHT22;4763;48.370;10.874;2023-06-14T17:11:43;24.50;77.10
9450;DHT22;4763;48.370;10.874;2023-06-14T17:14:10;24.30;81.00
9450;DHT22;4763;48.370;10.874;2023-06-14T17:16:38;24.20;77.40
9450;DHT22;4763;48.370;10.874;2023-06-14T17:19:05;24.10;78.00
9450;DHT22;4763;48.370;10.874;2023-06-14T17:21:33;24.00;76.90
9450;DHT22;4763;48.370;10.874;2023-06-14T17:24:01;23.90;76.80
9450;DHT22;4763;48.370;10.874;2023-06-14T17:26:29;23.80;78.30
9450;DHT22;4763;48.370;10.874;2023-06-14T17:28:57;23.70;78.00
9450;DHT22;4763;48.370;10.874;2023-06-14T17:31:24;23.50;78.70
9450;DHT22;4763;48.370;10.874;2023-06-14T17:33:51;23.60;78.40
9450;DHT22;4763;48.370;10.874;2023-06-14T17:36:18;23.40;80.90
9450;DHT22;4763;48.370;10.874;2023-06-14T17:38:45;23.40;80.80
9450;DHT22;4763;48.370;10.874;2023-06-14T17:41:11;23.30;80.50
9450;DHT22;4763;48.370;10.874;2023-06-14T17:43:41;23.10;80.70
9450;DHT22;4763;48.370;10.874;2023-06-14T17:46:08;23.10;80.40
9450;DHT22;4763;48.370;10.874;2023-06-14T17:48:34;23.00;79.70
9450;DHT22;4763;48.370;10.874;2023-06-14T17:51:05;23.00;80.70
9450;DHT22;4763;48.370;10.874;2023-06-14T17:53:35;22.90;83.80
9450;DHT22;4763;48.370;10.874;2023-06-14T17:56:03;22.80;82.00
9450;DHT22;4763;48.370;10.874;2023-06-14T17:58:30;22.80;82.20
9450;DHT22;4763;48.370;10.874;2023-06-14T18:01:04;22.70;83.30
9450;DHT22;4763;48.370;10.874;2023-06-14T18:03:31;22.70;83.20
9450;DHT22;4763;48.370;10.874;2023-06-14T18:05:58;22.60;84.90
9450;DHT22;4763;48.370;10.874;2023-06-14T18:08:25;22.50;84.00
9450;DHT22;4763;48.370;10.874;2023-06-14T18:10:52;22.50;84.70
9450;DHT22;4763;48.370;10.874;2023-06-14T18:13:19;22.50;83.70
9450;DHT22;4763;48.370;10.874;2023-06-14T18:15:56;22.50;83.00
9450;DHT22;4763;48.370;10.874;2023-06-14T18:18:25;22.40;81.20
9450;DHT22;4763;48.370;10.874;2023-06-14T18:20:51;22.40;83.30
9450;DHT22;4763;48.370;10.874;2023-06-14T18:23:19;22.40;83.10
9450;DHT22;4763;48.370;10.874;2023-06-14T18:25:51;22.30;84.90
9450;DHT22;4763;48.370;10.874;2023-06-14T18:28:21;22.30;85.20
9450;DHT22;4763;48.370;10.874;2023-06-14T18:30:48;22.20;83.50
9450;DHT22;4763;48.370;10.874;2023-06-14T18:33:18;22.10;85.30
9450;DHT22;4763;48.370;10.874;2023-06-14T18:36:09;22.10;85.70
9450;DHT22;4763;48.370;10.874;2023-06-14T18:38:48;22.10;85.60
9450;DHT22;4763;48.370;10.874;2023-06-14T18:41:30;22.10;86.00
9450;DHT22;4763;48.370;10.874;2023-06-14T18:44:04;22.00;86.10
9450;DHT22;4763;48.370;10.874;2023-06-14T18:46:34;21.90;85.20
9450;DHT22;4763;48.370;10.874;2023-06-14T18:52:07;21.70;85.90
9450;DHT22;4763;48.370;10.874;2023-06-14T18:54:51;21.70;88.40